Time;durP1;ratioP1;P1;durP2;ratioP2;P2;SDS_P1;SDS_P2;PMS_P1;PMS_P2;Temp;Humidity;BMP_temperature;BMP_pressure;BME280_temperature;BME280_humidity;BME280_pressure;Samples;Min_cycle;Max_cycle;Signal;HPM_P1;HPM_P2
2021/06/13 00:01:13;;;;;;;6.65;5.00;;;;;;;18.82;59.84;95990.81;5042430;28;20041;-72
2021/06/13 00:03:39;;;;;;;5.38;4.65;;;;;;;18.43;60.51;95957.19;5035678;28;20029;-72
2021/06/13 00:06:04;;;;;;;6.70;5.00;;;;;;;17.79;60.60;95869.63;5041914;28;20140;-71
2021/06/13 00:08:30;;;;;;;5.50;5.10;;;;;;;18.59;60.43;95990.44;5040652;28;20118;-72
2021/06/13 00:10:56;;;;;;;5.97;5.47;;;;;;;18.30;60.83;95974.41;5051243;28;20037;-72
2021/06/13 00:13:21;;;;;;;5.53;5.13;;;;;;;17.86;61.24;95898.66;5061409;28;20390;-72
2021/06/13 00:15:47;;;;;;;5.65;4.88;;;;;;;18.53;60.84;95999.03;5071100;28;20028;-72
2021/06/13 00:18:13;;;;;;;5.68;5.28;;;;;;;18.68;60.08;95991.16;5070451;28;20029;-72
2021/06/13 00:20:38;;;;;;;5.65;5.15;;;;;;;17.11;61.88;95844.88;5073251;28;20518;-72
2021/06/13 00:23:04;;;;;;;8.27;5.53;;;;;;;18.30;61.59;96001.34;5050518;28;20084;-72
2021/06/13 00:25:29;;;;;;;5.68;5.25;;;;;;;18.02;62.07;95985.78;5040049;28;20049;-72
2021/06/13 00:27:54;;;;;;;6.63;6.07;;;;;;;18.34;60.55;95975.34;5032148;28;20128;-72
2021/06/13 00:30:21;;;;;;;7.05;5.95;;;;;;;18.21;61.62;95993.34;5031824;28;20441;-71
2021/06/13 00:32:47;;;;;;;6.80;5.75;;;;;;;18.09;61.13;95944.84;5032883;28;20021;-72
2021/06/13 00:35:13;;;;;;;5.93;5.43;;;;;;;18.16;61.27;95974.69;5044336;28;20029;-71
2021/06/13 00:37:38;;;;;;;5.75;5.22;;;;;;;18.32;60.86;95969.47;5033188;28;20026;-72
2021/06/13 00:40:05;;;;;;;8.25;5.90;;;;;;;18.56;60.36;95972.22;5040010;28;20025;-71
2021/06/13 00:42:30;;;;;;;6.72;5.95;;;;;;;18.27;61.07;95988.53;5050522;28;20796;-72
2021/06/13 00:44:56;;;;;;;6.45;5.85;;;;;;;18.33;60.21;95941.44;5051510;28;20128;-71
2021/06/13 00:47:21;;;;;;;8.68;6.28;;;;;;;18.01;61.48;95943.81;5051159;28;20534;-72
2021/06/13 00:49:47;;;;;;;5.95;5.45;;;;;;;18.80;60.46;95992.28;5036854;28;20601;-72
2021/06/13 00:52:12;;;;;;;6.07;5.55;;;;;;;18.64;61.09;96011.00;5028567;28;20033;-72
2021/06/13 00:54:38;;;;;;;5.82;5.10;;;;;;;18.32;60.60;95924.47;5026594;28;20476;-72
2021/06/13 00:57:04;;;;;;;6.00;5.50;;;;;;;18.60;61.33;96015.47;5011871;28;20538;-72
2021/06/13 00:59:29;;;;;;;6.07;5.57;;;;;;;18.37;61.08;95942.31;5026203;28;20161;-71
2021/06/13 01:01:54;;;;;;;5.85;5.25;;;;;;;18.66;61.61;96009.50;5025812;28;20041;-71
2021/06/13 01:04:20;;;;;;;6.15;5.65;;;;;;;18.64;61.18;95995.59;5022065;28;20048;-71
2021/06/13 01:07:20;;;;;;;6.07;5.47;;;;;;;18.04;62.92;95982.75;5049995;28;20032;-71
2021/06/13 01:09:53;;;;;;;6.60;6.10;;;;;;;17.89;63.27;95968.00;5049906;28;20033;-71
2021/06/13 01:12:42;;;;;;;6.30;5.72;;;;;;;17.91;64.31;96023.09;5065349;28;20009;-72
2021/06/13 01:15:12;;;;;;;7.05;5.78;;;;;;;17.96;63.26;95987.06;5065693;28;20056;-71
2021/06/13 01:17:51;;;;;;;6.78;6.18;;;;;;;17.63;63.88;95960.88;5052222;28;20037;-71
2021/06/13 01:20:37;;;;;;;7.20;6.60;;;;;;;17.88;63.74;96001.41;5049642;28;20167;-71
2021/06/13 01:23:44;;;;;;;7.22;6.60;;;;;;;18.18;63.39;96012.88;5049359;28;20040;-73
2021/06/13 01:26:28;;;;;;;7.07;6.47;;;;;;;18.00;63.82;96014.91;5041666;28;20065;-71
2021/06/13 01:29:12;;;;;;;7.72;6.72;;;;;;;17.60;64.65;95960.75;5050015;28;20045;-74
2021/06/13 01:31:43;;;;;;;6.80;6.20;;;;;;;17.82;64.38;96008.91;5065301;28;20510;-73
2021/06/13 01:34:17;;;;;;;6.65;6.15;;;;;;;17.65;63.98;95942.50;5049496;28;20132;-70
2021/06/13 01:36:45;;;;;;;6.47;6.00;;;;;;;17.77;65.07;95997.56;5045979;28;20090;-72
2021/06/13 01:39:16;;;;;;;8.45;6.43;;;;;;;17.72;63.89;95954.66;5045296;28;20044;-72
2021/06/13 01:41:43;;;;;;;7.43;6.78;;;;;;;17.36;64.47;95980.25;5031833;28;20045;-71
2021/06/13 01:44:10;;;;;;;8.60;7.72;;;;;;;17.57;64.14;95972.97;5024783;28;20092;-71
2021/06/13 01:46:38;;;;;;;8.23;7.63;;;;;;;18.19;62.99;96004.47;5009982;28;20436;-71
2021/06/13 01:49:05;;;;;;;7.40;6.80;;;;;;;17.93;63.61;95993.13;5010031;28;20038;-71
2021/06/13 01:51:31;;;;;;;7.53;6.90;;;;;;;17.51;64.58;95985.06;5044033;28;20124;-71
2021/06/13 01:53:59;;;;;;;7.38;6.78;;;;;;;17.65;63.90;95952.47;5069600;28;20027;-71
2021/06/13 01:56:26;;;;;;;8.40;7.70;;;;;;;17.54;65.02;96005.91;5069205;28;20508;-71
2021/06/13 01:58:53;;;;;;;7.75;7.05;;;;;;;17.46;64.72;95962.94;5084862;28;20056;-71
2021/06/13 02:01:23;;;;;;;8.68;7.88;;;;;;;17.62;63.81;95948.56;5074731;28;20040;-71
2021/06/13 02:03:51;;;;;;;8.32;7.63;;;;;;;17.70;63.80;95968.44;5054758;28;20032;-71
2021/06/13 02:06:26;;;;;;;8.05;7.25;;;;;;;17.83;63.23;95967.41;5065314;28;20055;-70
2021/06/13 02:08:52;;;;;;;8.18;7.47;;;;;;;17.55;63.62;95934.84;5070944;28;20034;-70
2021/06/13 02:11:19;;;;;;;9.52;8.63;;;;;;;17.66;62.77;95919.09;5068658;28;20098;-70
2021/06/13 02:13:46;;;;;;;8.23;7.53;;;;;;;18.15;61.80;95955.06;5068800;28;20048;-70
2021/06/13 02:16:13;;;;;;;9.05;8.15;;;;;;;17.54;63.24;95995.13;5084616;28;20039;-71
2021/06/13 02:18:38;;;;;;;8.32;7.60;;;;;;;17.66;62.36;95959.47;5069025;28;20036;-71
2021/06/13 02:21:09;;;;;;;7.90;7.18;;;;;;;17.93;62.18;95993.91;5066630;28;20026;-71
2021/06/13 02:23:35;;;;;;;8.82;7.30;;;;;;;17.60;62.65;95993.81;5069010;28;20052;-70
2021/06/13 02:26:01;;;;;;;9.30;7.82;;;;;;;17.50;62.24;95961.94;5084364;28;20032;-71
2021/06/13 02:28:28;;;;;;;9.10;7.45;;;;;;;17.47;61.68;95921.47;5068514;28;20037;-71
2021/06/13 02:30:54;;;;;;;7.93;7.22;;;;;;;17.83;61.83;96004.31;5061436;28;20045;-71
2021/06/13 02:33:22;;;;;;;9.82;7.95;;;;;;;17.60;62.13;96007.28;5048042;28;20032;-70
2021/06/13 02:35:53;;;;;;;9.80;7.43;;;;;;;17.61;61.83;95991.94;5063038;28;20717;-71
2021/06/13 02:38:20;;;;;;;7.35;6.65;;;;;;;17.93;60.67;95983.16;5048573;28;20038;-71
2021/06/13 02:40:49;;;;;;;9.77;7.03;;;;;;;17.53;61.66;96001.63;5048194;28;20127;-70
2021/06/13 02:43:14;;;;;;;9.07;7.28;;;;;;;17.15;62.01;95964.88;5048241;28;20041;-70
2021/06/13 02:45:41;;;;;;;7.47;6.88;;;;;;;16.68;61.01;95872.78;5048152;28;20032;-71
2021/06/13 02:48:07;;;;;;;8.27;6.22;;;;;;;17.13;61.57;95968.97;5048447;28;20044;-71
2021/06/13 02:50:33;;;;;;;6.78;6.03;;;;;;;17.44;60.96;95975.91;5063838;28;20049;-70
2021/06/13 02:53:07;;;;;;;7.10;6.40;;;;;;;17.47;60.36;95997.56;5034849;28;20515;-71
2021/06/13 02:55:43;;;;;;;7.28;6.57;;;;;;;17.13;61.30;95975.16;5043749;28;20040;-70
2021/06/13 02:58:21;;;;;;;7.75;6.63;;;;;;;16.83;62.49;95974.34;5028303;28;20038;-70
2021/06/13 03:00:49;;;;;;;9.63;6.80;;;;;;;16.83;61.25;95933.25;5043734;28;20116;-70
2021/06/13 03:03:18;;;;;;;7.80;7.07;;;;;;;16.75;62.95;95993.22;5043537;28;20025;-70
2021/06/13 03:05:44;;;;;;;8.55;7.40;;;;;;;16.89;62.03;95974.97;5029798;28;20021;-71
2021/06/13 03:08:10;;;;;;;8.32;6.80;;;;;;;16.28;64.18;95980.53;5045277;28;20044;-71
2021/06/13 03:10:35;;;;;;;7.47;6.88;;;;;;;16.44;64.36;96010.34;5051192;28;20045;-70
2021/06/13 03:13:03;;;;;;;8.77;7.88;;;;;;;15.83;64.64;95939.88;5035076;28;20083;-70
2021/06/13 03:15:31;;;;;;;7.82;7.10;;;;;;;16.00;64.42;95977.41;5044902;28;20042;-71
2021/06/13 03:17:57;;;;;;;8.75;7.30;;;;;;;15.71;65.28;95947.75;5030138;28;20093;-70
2021/06/13 03:20:23;;;;;;;9.63;7.18;;;;;;;16.33;64.15;96011.78;5041284;28;20120;-70
2021/06/13 03:22:49;;;;;;;10.38;7.55;;;;;;;16.40;64.54;96046.19;5027357;28;20395;-71
2021/06/13 03:25:16;;;;;;;8.65;7.85;;;;;;;15.97;65.07;96018.31;5027711;28;20042;-69
2021/06/13 03:27:43;;;;;;;7.38;6.65;;;;;;;15.94;65.17;96005.50;5026271;28;20034;-70
2021/06/13 03:30:10;;;;;;;9.77;6.82;;;;;;;16.34;64.72;96032.94;5028155;28;20087;-70
2021/06/13 03:32:36;;;;;;;8.00;7.20;;;;;;;16.10;63.16;95936.81;5031301;28;20022;-69
2021/06/13 03:35:01;;;;;;;8.45;7.53;;;;;;;16.67;63.64;96043.13;5049065;28;20045;-70
2021/06/13 03:37:28;;;;;;;8.80;7.78;;;;;;;15.90;64.74;95961.63;5040733;28;20026;-70
2021/06/13 03:39:54;;;;;;;9.07;7.85;;;;;;;16.55;64.78;96065.28;5047445;28;20045;-70
2021/06/13 03:42:20;;;;;;;7.60;6.95;;;;;;;16.61;64.45;96055.16;5030089;28;20517;-70
2021/06/13 03:44:47;;;;;;;8.15;7.32;;;;;;;16.27;64.13;95995.03;5033793;28;20107;-70
2021/06/13 03:47:13;;;;;;;8.60;7.82;;;;;;;16.61;64.96;96065.91;5031831;28;20041;-70
2021/06/13 03:49:39;;;;;;;8.68;7.88;;;;;;;16.39;65.11;96056.16;5031750;28;20126;-70
2021/06/13 03:52:05;;;;;;;18.67;8.07;;;;;;;16.07;64.96;95984.97;5031070;28;20041;-70
2021/06/13 03:54:31;;;;;;;8.57;7.78;;;;;;;16.40;65.40;96051.56;5031187;28;20034;-70
2021/06/13 03:57:01;;;;;;;8.65;7.80;;;;;;;16.26;65.36;96012.25;5033606;28;20033;-71
2021/06/13 03:59:28;;;;;;;8.68;7.82;;;;;;;16.05;66.34;96032.81;5051041;28;20570;-69
2021/06/13 04:01:55;;;;;;;8.60;7.80;;;;;;;16.21;65.93;96035.78;5036368;28;20095;-71
2021/06/13 04:04:22;;;;;;;9.95;7.63;;;;;;;16.50;64.58;96011.75;5041169;28;20469;-70
2021/06/13 04:06:49;;;;;;;7.50;6.70;;;;;;;17.14;63.59;96078.09;5036852;28;20483;-70
2021/06/13 04:09:18;;;;;;;8.52;7.70;;;;;;;16.59;64.81;96052.00;5031458;28;20033;-70
2021/06/13 04:11:50;;;;;;;7.90;7.10;;;;;;;16.37;64.13;95996.59;5048375;28;20010;-71
2021/06/13 04:14:16;;;;;;;7.95;7.28;;;;;;;17.01;63.44;96061.06;5013120;28;20041;-70
2021/06/13 04:16:45;;;;;;;7.65;6.78;;;;;;;16.75;62.26;95977.88;5023487;28;20116;-71
2021/06/13 04:19:11;;;;;;;8.75;7.10;;;;;;;17.42;61.86;96075.75;5031049;28;20037;-70
2021/06/13 04:21:39;;;;;;;10.60;6.28;;;;;;;17.62;61.94;96077.69;5044423;28;20041;-70
2021/06/13 04:24:06;;;;;;;8.50;7.55;;;;;;;17.22;61.89;96046.91;5052421;28;20029;-70
2021/06/13 04:26:33;;;;;;;9.52;7.40;;;;;;;16.34;64.12;96022.19;5050974;28;20080;-70
2021/06/13 04:28:59;;;;;;;6.82;6.22;;;;;;;16.49;63.45;95996.75;5051078;28;20025;-70
2021/06/13 04:31:29;;;;;;;7.60;6.90;;;;;;;16.84;62.79;96002.81;5051200;28;20065;-70
2021/06/13 04:33:54;;;;;;;7.70;7.00;;;;;;;16.87;62.97;96082.75;5050442;28;20037;-71
2021/06/13 04:36:21;;;;;;;12.63;7.40;;;;;;;16.51;63.17;96036.69;5050327;28;20025;-70
2021/06/13 04:38:47;;;;;;;12.48;7.68;;;;;;;17.01;62.69;96079.88;5061036;28;20032;-69
2021/06/13 04:41:13;;;;;;;7.60;6.78;;;;;;;17.04;62.95;96081.13;5070843;28;20397;-70
2021/06/13 04:43:39;;;;;;;7.20;6.50;;;;;;;16.78;62.03;95976.44;5056603;28;20037;-69
2021/06/13 04:46:05;;;;;;;6.97;6.18;;;;;;;17.52;61.51;96064.63;5050814;28;20049;-70
2021/06/13 04:48:31;;;;;;;6.57;5.97;;;;;;;17.29;60.64;96002.25;5050397;28;20033;-70
2021/06/13 04:51:06;;;;;;;6.78;6.18;;;;;;;17.66;59.96;96027.50;5046800;28;20052;-70
2021/06/13 04:53:51;;;;;;;7.68;5.95;;;;;;;17.54;60.17;96094.66;5050940;28;20063;-71
2021/06/13 04:56:38;;;;;;;6.40;5.65;;;;;;;17.89;59.58;96103.34;5051245;28;20410;-70
2021/06/13 04:59:03;;;;;;;6.35;5.15;;;;;;;16.79;59.21;96018.31;5050712;28;20510;-70
2021/06/13 05:01:29;;;;;;;5.80;5.28;;;;;;;17.56;59.30;96124.75;5050098;28;20115;-70
2021/06/13 05:03:55;;;;;;;9.10;5.55;;;;;;;16.84;60.10;96079.94;5065272;28;20064;-70
2021/06/13 05:06:21;;;;;;;9.82;5.15;;;;;;;17.51;58.99;96100.72;5039633;28;20036;-71
2021/06/13 05:08:47;;;;;;;9.05;5.30;;;;;;;17.76;58.44;96120.56;5047381;28;20413;-70
2021/06/13 05:11:12;;;;;;;5.53;5.03;;;;;;;16.90;60.74;96132.41;5030145;28;20037;-70
2021/06/13 05:13:38;;;;;;;6.80;5.03;;;;;;;16.88;59.79;96086.25;5029695;28;20034;-70
2021/06/13 05:16:05;;;;;;;8.32;5.22;;;;;;;16.29;59.65;95998.19;5030203;28;20124;-71
2021/06/13 05:18:30;;;;;;;6.05;5.00;;;;;;;16.33;59.93;96012.56;5033347;28;20060;-70
2021/06/13 05:20:56;;;;;;;6.97;5.07;;;;;;;17.50;59.05;96131.38;5050154;28;20064;-70
2021/06/13 05:23:22;;;;;;;7.70;5.10;;;;;;;16.83;59.57;96041.50;5048027;28;20037;-70
2021/06/13 05:25:49;;;;;;;6.00;4.13;;;;;;;17.77;58.97;96132.09;5065307;28;20045;-70
2021/06/13 05:28:15;;;;;;;6.82;4.30;;;;;;;17.75;58.03;96121.63;5050040;28;20056;-71
2021/06/13 05:30:40;;;;;;;6.50;4.50;;;;;;;16.85;58.52;96097.66;5049903;28;20041;-70
2021/06/13 05:33:06;;;;;;;6.55;5.20;;;;;;;17.04;58.07;96065.00;5051487;28;20025;-70
2021/06/13 05:35:33;;;;;;;7.80;4.70;;;;;;;17.18;58.00;96070.16;5049897;28;20037;-71
2021/06/13 05:37:59;;;;;;;7.72;4.60;;;;;;;17.10;57.42;96126.34;5031213;28;20503;-70
2021/06/13 05:40:27;;;;;;;5.75;4.75;;;;;;;16.95;57.38;96035.50;5018952;28;20052;-71
2021/06/13 05:42:52;;;;;;;4.38;3.53;;;;;;;17.54;54.86;96150.38;5009470;28;20042;-70
2021/06/13 05:45:19;;;;;;;5.65;3.55;;;;;;;17.58;54.55;96141.34;5009930;28;20026;-70
2021/06/13 05:47:45;;;;;;;5.15;3.60;;;;;;;17.59;55.50;96153.66;5011933;28;20033;-70
2021/06/13 05:50:12;;;;;;;6.45;4.13;;;;;;;17.58;54.45;96100.97;5042155;28;20034;-71
2021/06/13 05:52:37;;;;;;;5.25;4.22;;;;;;;17.69;54.36;96063.72;5050008;28;20100;-70
2021/06/13 05:55:04;;;;;;;4.85;4.22;;;;;;;18.00;54.17;96138.75;5036408;28;20041;-71
2021/06/13 05:57:31;;;;;;;5.20;4.25;;;;;;;17.58;54.62;96154.78;5045483;28;20041;-70
2021/06/13 06:00:00;;;;;;;4.55;3.70;;;;;;;17.79;54.58;96127.16;5031572;28;20052;-70
2021/06/13 06:02:26;;;;;;;6.40;4.35;;;;;;;17.83;54.89;96149.63;5044058;28;20044;-70
2021/06/13 06:04:52;;;;;;;7.40;4.55;;;;;;;17.68;54.73;96106.00;5029308;28;20045;-70
2021/06/13 06:07:19;;;;;;;8.27;4.25;;;;;;;17.50;54.95;96162.88;5038494;28;20065;-72
2021/06/13 06:09:44;;;;;;;8.82;4.00;;;;;;;18.03;52.68;96068.09;5048994;28;20044;-70
2021/06/13 06:12:10;;;;;;;4.88;3.75;;;;;;;17.76;53.72;96069.41;5048468;28;20025;-69
2021/06/13 06:14:36;;;;;;;4.82;3.92;;;;;;;17.74;54.99;96113.91;5051200;28;20387;-71
2021/06/13 06:17:01;;;;;;;5.68;4.63;;;;;;;17.66;55.16;96153.97;5031412;28;20042;-70
2021/06/13 06:19:27;;;;;;;5.50;4.13;;;;;;;17.62;55.46;96115.38;5040145;28;20045;-69
2021/06/13 06:21:53;;;;;;;4.72;4.15;;;;;;;17.31;56.42;96131.03;5048435;28;20076;-69
2021/06/13 06:24:18;;;;;;;5.88;3.95;;;;;;;17.70;55.15;96153.31;5048238;28;20147;-69
2021/06/13 06:26:43;;;;;;;6.28;4.35;;;;;;;17.36;55.37;96138.91;5050675;28;20083;-69
2021/06/13 06:29:09;;;;;;;8.55;4.72;;;;;;;17.37;54.48;96127.03;5048673;28;20057;-69
2021/06/13 06:31:34;;;;;;;6.82;4.80;;;;;;;18.07;53.73;96149.81;5048756;28;20037;-69
2021/06/13 06:34:00;;;;;;;7.82;4.65;;;;;;;17.57;54.33;96131.69;5047935;28;20041;-69
2021/06/13 06:36:25;;;;;;;6.65;4.47;;;;;;;18.05;54.52;96152.00;5042958;28;20032;-69
2021/06/13 06:38:50;;;;;;;5.90;4.60;;;;;;;18.14;53.64;96154.66;5065768;28;20023;-68
2021/06/13 06:41:16;;;;;;;6.03;4.70;;;;;;;18.93;52.68;96183.34;5030556;28;20075;-67
2021/06/13 06:43:41;;;;;;;6.18;4.20;;;;;;;19.04;51.57;96189.16;5028225;28;20037;-66
2021/06/13 06:46:06;;;;;;;6.20;4.40;;;;;;;17.99;53.64;96145.25;5028659;28;20041;-67
2021/06/13 06:48:32;;;;;;;6.85;4.60;;;;;;;18.77;52.31;96178.91;5043771;28;20034;-60
2021/06/13 06:50:57;;;;;;;7.97;4.68;;;;;;;19.17;51.24;96184.56;5031697;28;20032;-61
2021/06/13 06:53:22;;;;;;;8.27;4.97;;;;;;;19.46;51.27;96181.72;5047510;28;20041;-59
2021/06/13 06:55:48;;;;;;;5.03;4.40;;;;;;;19.81;51.30;96173.22;5062203;28;20047;-59
2021/06/13 06:58:13;;;;;;;5.18;4.63;;;;;;;19.77;50.91;96180.41;5068145;28;20471;-59
2021/06/13 07:00:38;;;;;;;10.23;5.25;;;;;;;19.02;51.71;96128.56;5068357;28;20040;-60
2021/06/13 07:03:10;;;;;;;8.25;4.85;;;;;;;19.46;50.88;96173.59;5070039;28;20052;-59
2021/06/13 07:05:35;;;;;;;6.80;4.60;;;;;;;18.27;53.51;96182.44;5068964;28;20405;-59
2021/06/13 07:08:01;;;;;;;5.30;4.47;;;;;;;17.99;53.68;96184.84;5040526;28;20069;-60
2021/06/13 07:10:26;;;;;;;6.20;4.70;;;;;;;18.36;53.38;96162.41;5039774;28;20031;-59
2021/06/13 07:12:51;;;;;;;5.88;4.80;;;;;;;18.55;52.72;96183.50;5063165;28;20049;-59
2021/06/13 07:15:18;;;;;;;7.95;5.00;;;;;;;18.63;52.57;96184.53;5048306;28;20021;-59
2021/06/13 07:17:44;;;;;;;5.40;4.60;;;;;;;18.88;52.11;96199.72;5050056;28;20060;-61
2021/06/13 07:20:10;;;;;;;6.78;4.00;;;;;;;18.56;51.79;96138.50;5031282;28;20053;-67
2021/06/13 07:22:37;;;;;;;8.75;4.38;;;;;;;18.62;51.77;96131.78;5032247;28;20071;-70
2021/06/13 07:25:06;;;;;;;4.72;4.10;;;;;;;18.32;53.03;96177.66;5063125;28;20410;-69
2021/06/13 07:27:31;;;;;;;7.95;4.55;;;;;;;18.79;51.29;96166.69;5047705;28;20045;-72
2021/06/13 07:29:56;;;;;;;5.47;4.53;;;;;;;19.32;50.76;96159.66;5049964;28;20027;-66
2021/06/13 07:32:22;;;;;;;7.93;4.50;;;;;;;17.95;53.49;96114.72;5066261;28;20041;-66
2021/06/13 07:34:47;;;;;;;9.55;4.90;;;;;;;17.71;53.92;96114.50;5083561;28;20067;-70
2021/06/13 07:37:13;;;;;;;6.05;5.38;;;;;;;18.01;54.41;96183.38;5054498;28;20124;-71
2021/06/13 07:39:40;;;;;;;4.50;4.10;;;;;;;18.56;54.11;96205.84;5047907;28;20467;-71
2021/06/13 07:42:08;;;;;;;10.18;4.82;;;;;;;17.65;54.90;96119.28;5049581;28;20083;-70
2021/06/13 07:44:33;;;;;;;7.47;5.75;;;;;;;17.84;54.09;96172.72;5028249;28;20092;-72
2021/06/13 07:46:58;;;;;;;8.30;5.53;;;;;;;17.85;55.46;96220.84;5043570;28;20028;-75
2021/06/13 07:49:24;;;;;;;7.82;5.63;;;;;;;18.90;52.93;96212.91;5036994;28;20723;-70
2021/06/13 07:51:50;;;;;;;7.32;5.55;;;;;;;18.64;53.46;96197.72;5033487;28;20037;-69
2021/06/13 07:54:15;;;;;;;5.30;4.80;;;;;;;19.25;52.82;96191.00;5047347;28;20474;-69
2021/06/13 07:56:41;;;;;;;7.28;5.28;;;;;;;18.74;52.74;96201.94;5049644;28;20029;-71
2021/06/13 07:59:06;;;;;;;7.10;4.68;;;;;;;18.94;52.55;96187.66;5047718;28;20131;-71
2021/06/13 08:01:32;;;;;;;8.18;6.13;;;;;;;18.40;52.39;96198.34;5035930;28;20140;-70
2021/06/13 08:03:58;;;;;;;5.47;4.90;;;;;;;18.47;52.65;96197.81;5027408;28;20049;-70
2021/06/13 08:06:23;;;;;;;8.77;4.93;;;;;;;19.06;52.22;96189.59;5027303;28;20017;-70
2021/06/13 08:08:49;;;;;;;6.50;5.50;;;;;;;18.88;52.51;96215.13;5028305;28;20614;-70
2021/06/13 08:11:14;;;;;;;7.60;4.65;;;;;;;18.85;53.28;96188.84;5027882;28;20064;-70
2021/06/13 08:13:40;;;;;;;7.68;5.63;;;;;;;18.78;51.39;96192.06;5027167;28;20073;-70
2021/06/13 08:16:05;;;;;;;5.03;4.53;;;;;;;19.08;51.78;96198.13;5026389;28;20040;-70
2021/06/13 08:18:31;;;;;;;7.80;4.38;;;;;;;18.26;53.16;96202.41;5046184;28;20067;-70
2021/06/13 08:20:56;;;;;;;7.40;4.80;;;;;;;18.91;52.40;96174.81;5053066;28;20109;-70
2021/06/13 08:23:22;;;;;;;6.32;4.63;;;;;;;19.22;50.94;96197.84;5031592;28;20207;-71
2021/06/13 08:25:49;;;;;;;7.05;4.80;;;;;;;18.99;52.53;96204.72;5031055;28;20073;-70
2021/06/13 08:28:15;;;;;;;7.90;4.90;;;;;;;18.67;52.03;96188.94;5040754;28;20553;-70
2021/06/13 08:30:41;;;;;;;6.45;5.15;;;;;;;18.48;51.92;96220.97;5061875;28;20025;-71
2021/06/13 08:33:06;;;;;;;5.60;5.10;;;;;;;18.50;52.39;96199.88;5032775;28;20104;-70
2021/06/13 08:35:32;;;;;;;8.00;5.40;;;;;;;18.95;51.35;96207.31;5051746;28;20060;-71
2021/06/13 08:38:01;;;;;;;7.53;5.65;;;;;;;18.36;53.08;96194.72;5025235;28;20088;-71
2021/06/13 08:40:26;;;;;;;6.82;5.05;;;;;;;18.50;53.34;96191.78;5021843;28;20112;-70
2021/06/13 08:42:51;;;;;;;6.45;4.88;;;;;;;18.53;52.02;96182.25;5029354;28;20610;-70
2021/06/13 08:45:18;;;;;;;8.07;5.72;;;;;;;18.45;51.94;96184.69;5030903;28;20076;-70
2021/06/13 08:47:46;;;;;;;7.50;4.53;;;;;;;18.92;52.70;96187.16;5033565;28;20029;-72
2021/06/13 08:50:12;;;;;;;5.57;4.40;;;;;;;18.88;51.57;96183.56;5030204;28;20045;-71
2021/06/13 08:52:38;;;;;;;6.63;5.03;;;;;;;19.03;51.55;96174.06;5030095;28;20046;-71
2021/06/13 08:55:06;;;;;;;5.90;4.65;;;;;;;18.97;51.31;96183.50;5030580;28;20483;-71
2021/06/13 08:57:32;;;;;;;7.15;5.38;;;;;;;19.30;51.30;96185.41;5034475;28;20127;-70
2021/06/13 08:59:57;;;;;;;5.47;4.35;;;;;;;19.51;51.99;96179.91;5052529;28;20104;-70
2021/06/13 09:02:23;;;;;;;6.40;4.72;;;;;;;19.29;50.87;96183.78;5031082;28;20050;-70
2021/06/13 09:04:48;;;;;;;5.55;5.00;;;;;;;19.64;50.42;96187.69;5030339;28;20487;-70
2021/06/13 09:07:32;;;;;;;5.38;4.72;;;;;;;19.16;50.03;96189.16;5029983;28;20030;-71
2021/06/13 09:10:08;;;;;;;4.47;3.97;;;;;;;19.26;50.68;96201.44;5030077;28;20125;-70
2021/06/13 09:12:35;;;;;;;8.35;5.10;;;;;;;19.10;50.71;96179.72;5033610;28;20037;-71
2021/06/13 09:15:00;;;;;;;5.18;4.32;;;;;;;19.45;50.08;96188.22;5052307;28;20516;-70
2021/06/13 09:17:28;;;;;;;4.63;4.15;;;;;;;19.33;49.85;96187.41;5065710;28;20045;-71
2021/06/13 09:20:19;;;;;;;4.60;3.97;;;;;;;19.60;50.39;96208.38;5065156;28;20491;-70
2021/06/13 09:23:06;;;;;;;6.13;4.47;;;;;;;19.42;50.72;96204.28;5026896;28;20050;-71
2021/06/13 09:25:33;;;;;;;5.47;3.80;;;;;;;20.25;49.52;96205.81;5025198;28;20406;-70
2021/06/13 09:28:08;;;;;;;8.27;3.95;;;;;;;19.65;49.04;96207.38;5017561;28;20124;-70
2021/06/13 09:30:36;;;;;;;7.28;4.57;;;;;;;19.73;49.44;96209.97;5029526;28;20399;-71
2021/06/13 09:33:12;;;;;;;5.97;4.18;;;;;;;20.11;47.82;96206.16;5031370;28;20087;-69
2021/06/13 09:35:39;;;;;;;4.28;3.75;;;;;;;20.22;47.99;96193.00;5030375;28;20617;-69
2021/06/13 09:38:18;;;;;;;7.53;3.45;;;;;;;20.30;48.29;96192.06;5058621;28;20041;-70
2021/06/13 09:40:51;;;;;;;6.05;3.83;;;;;;;19.53;47.07;96194.63;5049577;28;20499;-69
2021/06/13 09:43:33;;;;;;;7.40;4.10;;;;;;;19.75;47.37;96220.44;5049281;28;20037;-69
2021/06/13 09:46:05;;;;;;;6.68;3.63;;;;;;;20.10;45.71;96211.91;5049589;28;20525;-69
2021/06/13 09:48:30;;;;;;;4.20;2.90;;;;;;;20.26;45.13;96213.56;5046204;28;20076;-70
2021/06/13 09:51:06;;;;;;;3.97;2.90;;;;;;;19.80;44.33;96211.34;5031227;28;20463;-70
2021/06/13 09:53:38;;;;;;;4.28;3.05;;;;;;;20.23;44.76;96202.66;5027361;28;20057;-70
2021/06/13 09:56:28;;;;;;;5.20;3.25;;;;;;;20.15;44.98;96158.44;5029185;28;20403;-72
2021/06/13 09:59:15;;;;;;;6.25;3.20;;;;;;;20.61;44.73;96202.28;5023491;28;20128;-68
2021/06/13 10:01:46;;;;;;;4.53;2.90;;;;;;;20.63;43.49;96207.34;5029477;28;20052;-72
2021/06/13 10:04:18;;;;;;;4.13;2.95;;;;;;;20.98;44.60;96202.13;5028537;28;20049;-73
2021/06/13 10:06:46;;;;;;;5.43;2.78;;;;;;;20.68;45.10;96207.91;5028695;28;20037;-72
2021/06/13 10:09:12;;;;;;;3.90;3.05;;;;;;;21.29;44.49;96209.53;5031442;28;20035;-71
2021/06/13 10:11:39;;;;;;;4.15;2.80;;;;;;;21.36;43.57;96198.16;5051174;28;20025;-70
2021/06/13 10:14:10;;;;;;;6.18;2.90;;;;;;;21.33;44.81;96204.25;5048800;28;20037;-73
2021/06/13 10:16:51;;;;;;;8.40;3.83;;;;;;;20.18;46.35;96200.19;5049809;28;20502;-68
2021/06/13 10:19:21;;;;;;;9.63;3.40;;;;;;;20.11;45.59;96189.16;5058525;28;20426;-68
2021/06/13 10:21:52;;;;;;;6.13;3.38;;;;;;;20.21;45.32;96202.97;5065840;28;20282;-67
2021/06/13 10:24:23;;;;;;;3.38;2.83;;;;;;;19.60;45.48;96181.38;5066912;28;20028;-68
2021/06/13 10:26:51;;;;;;;4.57;2.55;;;;;;;20.22;43.88;96210.00;5050606;28;20739;-64
2021/06/13 10:29:17;;;;;;;4.32;2.97;;;;;;;20.43;44.16;96200.94;5048674;28;20037;-66
2021/06/13 10:31:45;;;;;;;4.30;3.00;;;;;;;20.05;44.59;96190.53;5048882;28;20064;-70
2021/06/13 10:34:11;;;;;;;3.70;2.78;;;;;;;19.98;44.62;96212.69;5048264;28;20044;-67
2021/06/13 10:36:40;;;;;;;8.32;3.08;;;;;;;20.47;44.04;96196.44;5052612;28;20390;-64
2021/06/13 10:39:08;;;;;;;4.38;2.60;;;;;;;20.53;40.71;96199.72;5050091;28;20033;-65
2021/06/13 10:41:34;;;;;;;4.10;2.30;;;;;;;20.76;41.10;96184.53;5048431;28;20037;-68
2021/06/13 10:44:01;;;;;;;3.20;2.33;;;;;;;20.19;41.47;96153.13;5048171;28;20098;-66
2021/06/13 10:46:29;;;;;;;3.08;2.78;;;;;;;20.29;42.21;96163.47;5037390;28;20030;-66
2021/06/13 10:48:56;;;;;;;5.75;2.83;;;;;;;20.97;43.06;96178.94;5043689;28;20044;-67
2021/06/13 10:51:26;;;;;;;7.00;2.80;;;;;;;21.17;42.67;96180.63;5043568;28;20590;-66
2021/06/13 10:53:51;;;;;;;6.20;3.03;;;;;;;20.96;43.68;96170.03;5038250;28;20033;-68
2021/06/13 10:56:25;;;;;;;22.73;16.20;;;;;;;21.17;42.38;96174.44;5066521;28;20039;-68
2021/06/13 10:58:53;;;;;;;10.13;8.20;;;;;;;21.24;42.07;96188.16;5083872;28;20504;-66
2021/06/13 11:01:25;;;;;;;12.40;6.80;;;;;;;21.69;42.52;96187.78;5068135;28;20387;-71
2021/06/13 11:03:58;;;;;;;8.02;5.80;;;;;;;21.68;40.70;96194.34;5067724;28;20064;-71
2021/06/13 11:06:40;;;;;;;5.22;3.60;;;;;;;20.76;40.50;96196.13;5066911;28;20032;-73
2021/06/13 11:09:11;;;;;;;5.93;3.05;;;;;;;21.15;40.96;96171.31;5055511;28;20020;-74
2021/06/13 11:11:39;;;;;;;4.00;2.67;;;;;;;21.74;37.64;96168.56;5034999;28;20109;-69
2021/06/13 11:14:24;;;;;;;3.78;2.25;;;;;;;21.29;40.00;96177.88;5028142;28;20048;-74
2021/06/13 11:16:51;;;;;;;2.50;2.30;;;;;;;21.52;39.07;96188.13;5028530;28;20087;-73
2021/06/13 11:19:31;;;;;;;3.88;2.63;;;;;;;21.28;41.95;96187.09;5028496;28;20693;-71
2021/06/13 11:22:18;;;;;;;3.88;2.30;;;;;;;21.47;41.43;96196.50;5021849;28;20030;-71
2021/06/13 11:24:47;;;;;;;4.40;2.65;;;;;;;21.50;41.87;96171.47;5032742;28;20065;-74
2021/06/13 11:27:13;;;;;;;3.33;2.83;;;;;;;21.52;42.36;96178.09;5048036;28;20718;-72
2021/06/13 11:29:59;;;;;;;4.25;2.95;;;;;;;21.50;42.49;96174.16;5049929;28;20528;-67
2021/06/13 11:32:53;;;;;;;3.90;3.60;;;;;;;22.07;41.99;96189.06;5047766;28;20041;-70
2021/06/13 11:35:34;;;;;;;3.05;2.75;;;;;;;22.40;40.76;96185.16;5048026;28;20131;-69
2021/06/13 11:38:12;;;;;;;4.78;2.65;;;;;;;21.94;38.68;96190.31;5046297;28;20072;-69
2021/06/13 11:40:47;;;;;;;5.82;2.70;;;;;;;22.10;39.43;96191.06;5035353;28;20125;-76